sensor_id;sensor_type;location;lat;lon;timestamp;temperature;humidity
11005;DHT22;5555;59.622;16.556;2023-04-24T00:02:12;3.80;99.90
11005;DHT22;5555;59.622;16.556;2023-04-24T00:04:39;3.90;99.90
11005;DHT22;5555;59.622;16.556;2023-04-24T00:07:12;3.90;99.90
11005;DHT22;5555;59.622;16.556;2023-04-24T00:09:38;3.70;99.90
11005;DHT22;5555;59.622;16.556;2023-04-24T00:12:04;3.70;99.90
11005;DHT22;5555;59.622;16.556;2023-04-24T00:14:31;3.70;99.90
11005;DHT22;5555;59.622;16.556;2023-04-24T00:16:56;3.60;99.90
11005;DHT22;5555;59.622;16.556;2023-04-24T00:19:22;3.60;99.90
11005;DHT22;5555;59.622;16.556;2023-04-24T00:21:48;3.60;99.90
11005;DHT22;5555;59.622;16.556;2023-04-24T00:24:16;3.50;99.90
11005;DHT22;5555;59.622;16.556;2023-04-24T00:26:42;3.50;99.90
11005;DHT22;5555;59.622;16.556;2023-04-24T00:29:08;3.50;99.90
11005;DHT22;5555;59.622;16.556;2023-04-24T00:31:34;3.50;99.90
11005;DHT22;5555;59.622;16.556;2023-04-24T00:34:00;3.50;99.90
11005;DHT22;5555;59.622;16.556;2023-04-24T00:36:26;3.50;99.90
11005;DHT22;5555;59.622;16.556;2023-04-24T00:38:53;3.40;99.90
11005;DHT22;5555;59.622;16.556;2023-04-24T00:41:19;3.50;99.90
11005;DHT22;5555;59.622;16.556;2023-04-24T00:43:46;3.50;99.90
11005;DHT22;5555;59.622;16.556;2023-04-24T00:46:12;3.50;99.90
11005;DHT22;5555;59.622;16.556;2023-04-24T00:48:41;3.50;99.90
11005;DHT22;5555;59.622;16.556;2023-04-24T00:51:06;3.50;99.90
11005;DHT22;5555;59.622;16.556;2023-04-24T00:53:32;3.50;99.90
11005;DHT22;5555;59.622;16.556;2023-04-24T00:55:58;3.50;99.90
11005;DHT22;5555;59.622;16.556;2023-04-24T00:58:25;3.40;99.90
11005;DHT22;5555;59.622;16.556;2023-04-24T01:00:52;3.40;99.90
11005;DHT22;5555;59.622;16.556;2023-04-24T01:03:20;3.30;99.90
11005;DHT22;5555;59.622;16.556;2023-04-24T01:05:47;3.30;99.90
11005;DHT22;5555;59.622;16.556;2023-04-24T01:08:13;3.30;99.90
11005;DHT22;5555;59.622;16.556;2023-04-24T01:10:41;3.30;99.90
11005;DHT22;5555;59.622;16.556;2023-04-24T01:13:08;3.40;99.90
11005;DHT22;5555;59.622;16.556;2023-04-24T01:15:34;3.40;99.90
11005;DHT22;5555;59.622;16.556;2023-04-24T01:18:00;3.30;99.90
11005;DHT22;5555;59.622;16.556;2023-04-24T01:20:25;3.40;99.90
11005;DHT22;5555;59.622;16.556;2023-04-24T01:22:52;3.40;99.90
11005;DHT22;5555;59.622;16.556;2023-04-24T01:25:18;3.40;99.90
11005;DHT22;5555;59.622;16.556;2023-04-24T01:27:44;3.40;99.90
11005;DHT22;5555;59.622;16.556;2023-04-24T01:30:11;3.30;99.90
11005;DHT22;5555;59.622;16.556;2023-04-24T01:32:37;3.30;99.90
11005;DHT22;5555;59.622;16.556;2023-04-24T01:35:03;3.30;99.90
11005;DHT22;5555;59.622;16.556;2023-04-24T01:37:29;3.30;99.90
11005;DHT22;5555;59.622;16.556;2023-04-24T01:39:56;3.30;99.90
11005;DHT22;5555;59.622;16.556;2023-04-24T01:42:22;3.30;99.90
11005;DHT22;5555;59.622;16.556;2023-04-24T01:44:48;3.30;99.90
11005;DHT22;5555;59.622;16.556;2023-04-24T01:47:14;3.30;99.90
11005;DHT22;5555;59.622;16.556;2023-04-24T01:49:40;3.30;99.90
11005;DHT22;5555;59.622;16.556;2023-04-24T01:52:06;3.40;99.90
11005;DHT22;5555;59.622;16.556;2023-04-24T01:54:32;3.40;99.90
11005;DHT22;5555;59.622;16.556;2023-04-24T01:56:59;3.40;99.90
11005;DHT22;5555;59.622;16.556;2023-04-24T01:59:28;3.30;99.90
11005;DHT22;5555;59.622;16.556;2023-04-24T02:01:53;3.30;99.90
11005;DHT22;5555;59.622;16.556;2023-04-24T02:04:19;3.30;99.90
11005;DHT22;5555;59.622;16.556;2023-04-24T02:06:45;3.30;99.90
11005;DHT22;5555;59.622;16.556;2023-04-24T02:09:11;3.30;99.90
11005;DHT22;5555;59.622;16.556;2023-04-24T02:11:36;3.30;99.90
11005;DHT22;5555;59.622;16.556;2023-04-24T02:14:02;3.30;99.90
11005;DHT22;5555;59.622;16.556;2023-04-24T02:16:28;3.20;99.90
11005;DHT22;5555;59.622;16.556;2023-04-24T02:18:57;3.20;99.90
11005;DHT22;5555;59.622;16.556;2023-04-24T02:21:23;3.20;99.90
11005;DHT22;5555;59.622;16.556;2023-04-24T02:23:48;3.10;99.90
11005;DHT22;5555;59.622;16.556;2023-04-24T02:26:14;3.00;99.90
11005;DHT22;5555;59.622;16.556;2023-04-24T02:28:40;3.00;99.90
11005;DHT22;5555;59.622;16.556;2023-04-24T02:31:06;3.00;99.90
11005;DHT22;5555;59.622;16.556;2023-04-24T02:33:31;3.00;99.90
11005;DHT22;5555;59.622;16.556;2023-04-24T02:35:57;3.00;99.90
11005;DHT22;5555;59.622;16.556;2023-04-24T02:38:23;3.00;99.90
11005;DHT22;5555;59.622;16.556;2023-04-24T02:40:48;3.00;99.90
11005;DHT22;5555;59.622;16.556;2023-04-24T02:43:14;3.00;99.90
11005;DHT22;5555;59.622;16.556;2023-04-24T02:45:39;3.00;99.90
11005;DHT22;5555;59.622;16.556;2023-04-24T02:48:05;3.00;99.90
11005;DHT22;5555;59.622;16.556;2023-04-24T02:50:31;3.00;99.90
11005;DHT22;5555;59.622;16.556;2023-04-24T02:52:57;2.90;99.90
11005;DHT22;5555;59.622;16.556;2023-04-24T02:55:22;3.00;99.90
11005;DHT22;5555;59.622;16.556;2023-04-24T02:57:48;3.00;99.90
11005;DHT22;5555;59.622;16.556;2023-04-24T03:00:14;2.90;99.90
11005;DHT22;5555;59.622;16.556;2023-04-24T03:02:39;2.90;99.90
11005;DHT22;5555;59.622;16.556;2023-04-24T03:05:05;3.00;99.90
11005;DHT22;5555;59.622;16.556;2023-04-24T03:07:31;3.00;99.90
11005;DHT22;5555;59.622;16.556;2023-04-24T03:09:57;3.00;99.90
11005;DHT22;5555;59.622;16.556;2023-04-24T03:12:23;3.00;99.90
11005;DHT22;5555;59.622;16.556;2023-04-24T03:14:49;3.00;99.90
11005;DHT22;5555;59.622;16.556;2023-04-24T03:17:15;2.90;99.90
11005;DHT22;5555;59.622;16.556;2023-04-24T03:19:41;2.90;99.90
11005;DHT22;5555;59.622;16.556;2023-04-24T03:22:06;3.00;99.90
11005;DHT22;5555;59.622;16.556;2023-04-24T03:24:34;3.00;99.90
11005;DHT22;5555;59.622;16.556;2023-04-24T03:27:00;3.00;99.90
11005;DHT22;5555;59.622;16.556;2023-04-24T03:29:25;3.00;99.90
11005;DHT22;5555;59.622;16.556;2023-04-24T03:31:51;2.90;99.90
11005;DHT22;5555;59.622;16.556;2023-04-24T03:34:16;2.90;99.90
11005;DHT22;5555;59.622;16.556;2023-04-24T03:36:42;2.90;99.90
11005;DHT22;5555;59.622;16.556;2023-04-24T03:39:08;2.90;99.90
11005;DHT22;5555;59.622;16.556;2023-04-24T03:41:33;2.80;99.90
11005;DHT22;5555;59.622;16.556;2023-04-24T03:43:59;2.80;99.90
11005;DHT22;5555;59.622;16.556;2023-04-24T03:46:25;2.70;99.90
11005;DHT22;5555;59.622;16.556;2023-04-24T03:48:51;2.70;99.90
11005;DHT22;5555;59.622;16.556;2023-04-24T03:51:16;2.80;99.90
11005;DHT22;5555;59.622;16.556;2023-04-24T03:53:42;2.80;99.90
11005;DHT22;5555;59.622;16.556;2023-04-24T03:56:07;2.80;99.90
11005;DHT22;5555;59.622;16.556;2023-04-24T03:58:33;2.80;99.90
11005;DHT22;5555;59.622;16.556;2023-04-24T04:00:59;2.90;99.90
11005;DHT22;5555;59.622;16.556;2023-04-24T04:03:25;2.90;99.90
11005;DHT22;5555;59.622;16.556;2023-04-24T04:05:51;2.90;99.90
11005;DHT22;5555;59.622;16.556;2023-04-24T04:08:17;2.90;99.90
11005;DHT22;5555;59.622;16.556;2023-04-24T04:10:42;3.00;99.90
11005;DHT22;5555;59.622;16.556;2023-04-24T04:13:08;2.90;99.90
11005;DHT22;5555;59.622;16.556;2023-04-24T04:15:33;2.90;99.90
11005;DHT22;5555;59.622;16.556;2023-04-24T04:17:59;2.90;99.90
11005;DHT22;5555;59.622;16.556;2023-04-24T04:20:25;2.90;99.90
11005;DHT22;5555;59.622;16.556;2023-04-24T04:22:50;3.00;99.90
11005;DHT22;5555;59.622;16.556;2023-04-24T04:25:16;3.00;99.90
11005;DHT22;5555;59.622;16.556;2023-04-24T04:27:45;3.10;99.90
11005;DHT22;5555;59.622;16.556;2023-04-24T04:30:10;3.10;99.90
11005;DHT22;5555;59.622;16.556;2023-04-24T04:32:36;3.10;99.90
11005;DHT22;5555;59.622;16.556;2023-04-24T04:35:02;3.20;99.90
11005;DHT22;5555;59.622;16.556;2023-04-24T04:37:32;3.20;99.90
11005;DHT22;5555;59.622;16.556;2023-04-24T04:39:59;3.20;99.90
11005;DHT22;5555;59.622;16.556;2023-04-24T04:42:25;3.20;99.90
11005;DHT22;5555;59.622;16.556;2023-04-24T04:44:51;3.20;99.90
11005;DHT22;5555;59.622;16.556;2023-04-24T04:47:17;3.20;99.90
11005;DHT22;5555;59.622;16.556;2023-04-24T04:49:43;3.30;99.90
11005;DHT22;5555;59.622;16.556;2023-04-24T04:52:09;3.30;99.90
11005;DHT22;5555;59.622;16.556;2023-04-24T04:54:35;3.40;99.90
11005;DHT22;5555;59.622;16.556;2023-04-24T04:57:00;3.40;99.90
11005;DHT22;5555;59.622;16.556;2023-04-24T04:59:27;3.40;99.90
11005;DHT22;5555;59.622;16.556;2023-04-24T05:01:53;3.40;99.90
11005;DHT22;5555;59.622;16.556;2023-04-24T05:04:18;3.30;99.90
11005;DHT22;5555;59.622;16.556;2023-04-24T05:06:44;3.30;99.90
11005;DHT22;5555;59.622;16.556;2023-04-24T05:09:10;3.40;99.90
11005;DHT22;5555;59.622;16.556;2023-04-24T05:11:35;3.40;99.90
11005;DHT22;5555;59.622;16.556;2023-04-24T05:14:01;3.40;99.90
11005;DHT22;5555;59.622;16.556;2023-04-24T05:16:27;3.50;99.90
11005;DHT22;5555;59.622;16.556;2023-04-24T05:18:52;3.60;99.90
11005;DHT22;5555;59.622;16.556;2023-04-24T05:21:18;3.60;99.90
11005;DHT22;5555;59.622;16.556;2023-04-24T05:23:43;3.60;99.90
11005;DHT22;5555;59.622;16.556;2023-04-24T05:26:09;3.50;99.90
11005;DHT22;5555;59.622;16.556;2023-04-24T05:28:35;3.50;99.90
11005;DHT22;5555;59.622;16.556;2023-04-24T05:31:02;3.50;99.90
11005;DHT22;5555;59.622;16.556;2023-04-24T05:33:28;3.60;99.90
11005;DHT22;5555;59.622;16.556;2023-04-24T05:35:54;3.50;99.90
11005;DHT22;5555;59.622;16.556;2023-04-24T05:38:19;3.40;99.90
11005;DHT22;5555;59.622;16.556;2023-04-24T05:40:46;3.30;99.90
11005;DHT22;5555;59.622;16.556;2023-04-24T05:43:12;3.30;99.90
11005;DHT22;5555;59.622;16.556;2023-04-24T05:45:38;3.50;99.90
11005;DHT22;5555;59.622;16.556;2023-04-24T05:48:04;3.50;99.90
11005;DHT22;5555;59.622;16.556;2023-04-24T05:50:29;3.50;99.90
11005;DHT22;5555;59.622;16.556;2023-04-24T05:52:55;3.50;99.90
11005;DHT22;5555;59.622;16.556;2023-04-24T05:55:23;3.70;99.90
11005;DHT22;5555;59.622;16.556;2023-04-24T05:57:49;3.80;99.90
11005;DHT22;5555;59.622;16.556;2023-04-24T06:00:15;3.70;99.90
11005;DHT22;5555;59.622;16.556;2023-04-24T06:02:41;3.60;99.90
11005;DHT22;5555;59.622;16.556;2023-04-24T06:05:07;3.70;99.90
11005;DHT22;5555;59.622;16.556;2023-04-24T06:07:33;3.80;99.90
11005;DHT22;5555;59.622;16.556;2023-04-24T06:09:59;3.80;99.90
11005;DHT22;5555;59.622;16.556;2023-04-24T06:12:25;3.90;99.90
11005;DHT22;5555;59.622;16.556;2023-04-24T06:14:51;3.90;99.90
11005;DHT22;5555;59.622;16.556;2023-04-24T06:17:17;3.90;99.90
11005;DHT22;5555;59.622;16.556;2023-04-24T06:19:43;3.80;99.90
11005;DHT22;5555;59.622;16.556;2023-04-24T06:22:08;4.00;99.90
11005;DHT22;5555;59.622;16.556;2023-04-24T06:24:34;4.10;99.90
11005;DHT22;5555;59.622;16.556;2023-04-24T06:27:00;4.10;99.90
11005;DHT22;5555;59.622;16.556;2023-04-24T06:29:26;4.20;99.90
11005;DHT22;5555;59.622;16.556;2023-04-24T06:31:52;4.30;99.90
11005;DHT22;5555;59.622;16.556;2023-04-24T06:34:18;4.20;99.90
11005;DHT22;5555;59.622;16.556;2023-04-24T06:36:44;4.20;99.90
11005;DHT22;5555;59.622;16.556;2023-04-24T06:39:10;4.30;99.90
11005;DHT22;5555;59.622;16.556;2023-04-24T06:41:35;4.30;99.90
11005;DHT22;5555;59.622;16.556;2023-04-24T06:44:01;4.20;99.90
11005;DHT22;5555;59.622;16.556;2023-04-24T06:46:27;4.30;99.90
11005;DHT22;5555;59.622;16.556;2023-04-24T06:48:53;4.20;99.90
11005;DHT22;5555;59.622;16.556;2023-04-24T06:51:26;4.20;99.90
11005;DHT22;5555;59.622;16.556;2023-04-24T06:53:53;4.30;99.90
11005;DHT22;5555;59.622;16.556;2023-04-24T06:56:19;4.20;99.90
11005;DHT22;5555;59.622;16.556;2023-04-24T06:58:44;4.30;99.90
11005;DHT22;5555;59.622;16.556;2023-04-24T07:01:11;4.40;99.90
11005;DHT22;5555;59.622;16.556;2023-04-24T07:03:36;4.50;99.90
11005;DHT22;5555;59.622;16.556;2023-04-24T07:06:02;4.60;99.90
11005;DHT22;5555;59.622;16.556;2023-04-24T07:08:29;4.70;99.90
11005;DHT22;5555;59.622;16.556;2023-04-24T07:10:56;4.60;99.90
11005;DHT22;5555;59.622;16.556;2023-04-24T07:13:22;4.70;99.90
11005;DHT22;5555;59.622;16.556;2023-04-24T07:15:48;4.80;99.90
11005;DHT22;5555;59.622;16.556;2023-04-24T07:18:16;4.70;99.90
11005;DHT22;5555;59.622;16.556;2023-04-24T07:20:41;4.80;99.90
11005;DHT22;5555;59.622;16.556;2023-04-24T07:23:07;4.80;99.90
11005;DHT22;5555;59.622;16.556;2023-04-24T07:25:33;4.90;99.90
11005;DHT22;5555;59.622;16.556;2023-04-24T07:27:58;4.70;99.90
11005;DHT22;5555;59.622;16.556;2023-04-24T07:30:24;4.90;99.90
11005;DHT22;5555;59.622;16.556;2023-04-24T07:32:50;5.10;99.90
11005;DHT22;5555;59.622;16.556;2023-04-24T07:35:16;5.20;99.90
11005;DHT22;5555;59.622;16.556;2023-04-24T07:37:41;5.40;99.90
11005;DHT22;5555;59.622;16.556;2023-04-24T07:40:14;5.40;99.90
11005;DHT22;5555;59.622;16.556;2023-04-24T07:42:40;5.40;99.90
11005;DHT22;5555;59.622;16.556;2023-04-24T07:45:07;5.30;99.90
11005;DHT22;5555;59.622;16.556;2023-04-24T07:47:33;5.40;99.90
11005;DHT22;5555;59.622;16.556;2023-04-24T07:49:59;5.30;99.90
11005;DHT22;5555;59.622;16.556;2023-04-24T07:52:25;5.20;99.90
11005;DHT22;5555;59.622;16.556;2023-04-24T07:54:50;5.30;99.90
11005;DHT22;5555;59.622;16.556;2023-04-24T07:57:18;5.30;99.90
11005;DHT22;5555;59.622;16.556;2023-04-24T07:59:44;5.40;99.90
11005;DHT22;5555;59.622;16.556;2023-04-24T08:02:09;5.60;99.90
11005;DHT22;5555;59.622;16.556;2023-04-24T08:04:35;5.80;99.90
11005;DHT22;5555;59.622;16.556;2023-04-24T08:07:00;5.80;99.90
11005;DHT22;5555;59.622;16.556;2023-04-24T08:09:26;5.70;99.90
11005;DHT22;5555;59.622;16.556;2023-04-24T08:11:52;5.50;99.90
11005;DHT22;5555;59.622;16.556;2023-04-24T08:14:18;5.50;99.90
11005;DHT22;5555;59.622;16.556;2023-04-24T08:16:44;5.60;99.90
11005;DHT22;5555;59.622;16.556;2023-04-24T08:19:09;5.50;99.90
11005;DHT22;5555;59.622;16.556;2023-04-24T08:21:35;5.50;99.90
11005;DHT22;5555;59.622;16.556;2023-04-24T08:24:01;5.40;99.90
11005;DHT22;5555;59.622;16.556;2023-04-24T08:26:30;5.80;99.90
11005;DHT22;5555;59.622;16.556;2023-04-24T08:28:56;6.10;99.90
11005;DHT22;5555;59.622;16.556;2023-04-24T08:31:21;6.20;99.90
11005;DHT22;5555;59.622;16.556;2023-04-24T08:33:48;6.00;99.90
11005;DHT22;5555;59.622;16.556;2023-04-24T08:36:13;6.20;99.90
11005;DHT22;5555;59.622;16.556;2023-04-24T08:38:39;6.20;99.90
11005;DHT22;5555;59.622;16.556;2023-04-24T08:41:05;6.20;99.90
11005;DHT22;5555;59.622;16.556;2023-04-24T08:43:33;6.20;99.90
11005;DHT22;5555;59.622;16.556;2023-04-24T08:46:03;6.40;99.90
11005;DHT22;5555;59.622;16.556;2023-04-24T08:48:29;6.20;99.90
11005;DHT22;5555;59.622;16.556;2023-04-24T08:50:57;6.30;99.90
11005;DHT22;5555;59.622;16.556;2023-04-24T08:53:25;6.50;99.90
11005;DHT22;5555;59.622;16.556;2023-04-24T08:55:51;6.60;99.90
11005;DHT22;5555;59.622;16.556;2023-04-24T08:58:19;6.40;99.90
11005;DHT22;5555;59.622;16.556;2023-04-24T09:00:45;6.60;99.90
11005;DHT22;5555;59.622;16.556;2023-04-24T09:03:16;6.60;99.90
11005;DHT22;5555;59.622;16.556;2023-04-24T09:05:43;6.50;99.90
11005;DHT22;5555;59.622;16.556;2023-04-24T09:08:12;6.50;99.90
11005;DHT22;5555;59.622;16.556;2023-04-24T09:10:39;6.60;99.90
11005;DHT22;5555;59.622;16.556;2023-04-24T09:13:05;6.80;99.90
11005;DHT22;5555;59.622;16.556;2023-04-24T09:15:31;7.30;99.90
11005;DHT22;5555;59.622;16.556;2023-04-24T09:17:57;7.40;99.90
11005;DHT22;5555;59.622;16.556;2023-04-24T09:20:23;7.60;99.90
11005;DHT22;5555;59.622;16.556;2023-04-24T09:22:54;7.50;99.90
11005;DHT22;5555;59.622;16.556;2023-04-24T09:25:20;7.10;99.90
11005;DHT22;5555;59.622;16.556;2023-04-24T09:27:46;6.70;99.90
11005;DHT22;5555;59.622;16.556;2023-04-24T09:30:12;6.40;99.90
11005;DHT22;5555;59.622;16.556;2023-04-24T09:32:38;6.60;99.90
11005;DHT22;5555;59.622;16.556;2023-04-24T09:35:14;6.80;99.90
11005;DHT22;5555;59.622;16.556;2023-04-24T09:37:43;6.80;99.90
11005;DHT22;5555;59.622;16.556;2023-04-24T09:40:20;6.70;99.90
11005;DHT22;5555;59.622;16.556;2023-04-24T09:42:54;6.70;99.90
11005;DHT22;5555;59.622;16.556;2023-04-24T09:45:21;6.50;99.90
11005;DHT22;5555;59.622;16.556;2023-04-24T09:47:51;6.40;99.90
11005;DHT22;5555;59.622;16.556;2023-04-24T09:50:19;6.60;99.90
11005;DHT22;5555;59.622;16.556;2023-04-24T09:52:59;7.10;99.90
11005;DHT22;5555;59.622;16.556;2023-04-24T09:55:26;7.70;99.90
11005;DHT22;5555;59.622;16.556;2023-04-24T09:57:57;7.50;99.90
11005;DHT22;5555;59.622;16.556;2023-04-24T10:00:24;7.60;99.90
11005;DHT22;5555;59.622;16.556;2023-04-24T10:02:54;7.10;99.90
11005;DHT22;5555;59.622;16.556;2023-04-24T10:05:30;6.70;99.90
11005;DHT22;5555;59.622;16.556;2023-04-24T10:07:58;6.50;99.90
11005;DHT22;5555;59.622;16.556;2023-04-24T10:10:23;6.30;99.90
11005;DHT22;5555;59.622;16.556;2023-04-24T10:12:50;6.10;99.90
11005;DHT22;5555;59.622;16.556;2023-04-24T10:15:16;6.00;99.90
11005;DHT22;5555;59.622;16.556;2023-04-24T10:17:50;5.90;99.90
11005;DHT22;5555;59.622;16.556;2023-04-24T10:20:24;6.00;99.90
11005;DHT22;5555;59.622;16.556;2023-04-24T10:22:52;6.30;99.90
11005;DHT22;5555;59.622;16.556;2023-04-24T10:25:22;6.50;99.90
11005;DHT22;5555;59.622;16.556;2023-04-24T10:27:49;6.60;99.90
11005;DHT22;5555;59.622;16.556;2023-04-24T10:30:16;6.60;99.90
11005;DHT22;5555;59.622;16.556;2023-04-24T10:32:42;6.70;99.90
11005;DHT22;5555;59.622;16.556;2023-04-24T10:35:09;6.80;99.90
11005;DHT22;5555;59.622;16.556;2023-04-24T10:37:41;7.10;99.90
11005;DHT22;5555;59.622;16.556;2023-04-24T10:40:09;6.80;99.90
11005;DHT22;5555;59.622;16.556;2023-04-24T10:42:35;6.60;99.90
11005;DHT22;5555;59.622;16.556;2023-04-24T10:45:06;6.90;99.90
11005;DHT22;5555;59.622;16.556;2023-04-24T10:47:40;6.60;99.90
11005;DHT22;5555;59.622;16.556;2023-04-24T10:50:15;6.30;99.90
11005;DHT22;5555;59.622;16.556;2023-04-24T10:52:47;6.40;99.90
11005;DHT22;5555;59.622;16.556;2023-04-24T10:55:14;6.30;99.90
11005;DHT22;5555;59.622;16.556;2023-04-24T10:58:01;6.40;99.90
11005;DHT22;5555;59.622;16.556;2023-04-24T11:00:28;6.50;99.90
11005;DHT22;5555;59.622;16.556;2023-04-24T11:02:53;6.30;99.90
11005;DHT22;5555;59.622;16.556;2023-04-24T11:05:21;6.20;99.90
11005;DHT22;5555;59.622;16.556;2023-04-24T11:10:39;6.50;99.90
11005;DHT22;5555;59.622;16.556;2023-04-24T11:13:05;6.50;99.90
11005;DHT22;5555;59.622;16.556;2023-04-24T11:15:31;6.60;99.90
11005;DHT22;5555;59.622;16.556;2023-04-24T11:17:57;6.50;99.90
11005;DHT22;5555;59.622;16.556;2023-04-24T11:20:23;6.40;99.90
11005;DHT22;5555;59.622;16.556;2023-04-24T11:22:53;6.50;99.90
11005;DHT22;5555;59.622;16.556;2023-04-24T11:25:21;6.40;99.90
11005;DHT22;5555;59.622;16.556;2023-04-24T11:27:48;6.40;99.90
11005;DHT22;5555;59.622;16.556;2023-04-24T11:30:19;6.50;99.90
11005;DHT22;5555;59.622;16.556;2023-04-24T11:32:50;6.60;99.90
11005;DHT22;5555;59.622;16.556;2023-04-24T11:35:20;6.70;99.90
11005;DHT22;5555;59.622;16.556;2023-04-24T11:37:48;6.80;99.90
11005;DHT22;5555;59.622;16.556;2023-04-24T11:40:16;6.80;99.90
11005;DHT22;5555;59.622;16.556;2023-04-24T11:42:46;6.90;99.90
11005;DHT22;5555;59.622;16.556;2023-04-24T11:45:25;6.70;99.90
11005;DHT22;5555;59.622;16.556;2023-04-24T11:47:51;6.60;99.90
11005;DHT22;5555;59.622;16.556;2023-04-24T11:50:19;6.60;99.90
11005;DHT22;5555;59.622;16.556;2023-04-24T11:52:46;6.70;99.90
11005;DHT22;5555;59.622;16.556;2023-04-24T11:57:49;6.90;99.90
11005;DHT22;5555;59.622;16.556;2023-04-24T12:00:23;6.70;99.90
11005;DHT22;5555;59.622;16.556;2023-04-24T12:02:49;6.60;99.90
11005;DHT22;5555;59.622;16.556;2023-04-24T12:05:24;6.70;99.90
11005;DHT22;5555;59.622;16.556;2023-04-24T12:07:49;6.90;99.90
11005;DHT22;5555;59.622;16.556;2023-04-24T12:10:20;6.90;99.90
11005;DHT22;5555;59.622;16.556;2023-04-24T12:12:46;6.60;99.90
11005;DHT22;5555;59.622;16.556;2023-04-24T12:15:12;6.70;99.90
11005;DHT22;5555;59.622;16.556;2023-04-24T12:17:41;6.80;99.90
11005;DHT22;5555;59.622;16.556;2023-04-24T12:20:08;6.90;99.90
11005;DHT22;5555;59.622;16.556;2023-04-24T12:22:54;6.90;99.90
11005;DHT22;5555;59.622;16.556;2023-04-24T12:25:22;6.80;99.90
11005;DHT22;5555;59.622;16.556;2023-04-24T12:27:53;6.80;99.90
11005;DHT22;5555;59.622;16.556;2023-04-24T12:30:20;6.60;99.90
11005;DHT22;5555;59.622;16.556;2023-04-24T12:32:48;6.60;99.90
11005;DHT22;5555;59.622;16.556;2023-04-24T12:35:21;6.60;99.90
11005;DHT22;5555;59.622;16.556;2023-04-24T12:37:47;6.80;99.90
11005;DHT22;5555;59.622;16.556;2023-04-24T12:40:13;6.80;99.90
11005;DHT22;5555;59.622;16.556;2023-04-24T12:42:50;6.60;99.90
11005;DHT22;5555;59.622;16.556;2023-04-24T12:45:17;6.30;99.90
11005;DHT22;5555;59.622;16.556;2023-04-24T12:47:44;6.30;99.90
11005;DHT22;5555;59.622;16.556;2023-04-24T12:50:14;6.30;99.90
11005;DHT22;5555;59.622;16.556;2023-04-24T12:52:41;6.60;99.90
11005;DHT22;5555;59.622;16.556;2023-04-24T12:55:07;6.70;99.90
11005;DHT22;5555;59.622;16.556;2023-04-24T12:57:35;6.90;99.90
11005;DHT22;5555;59.622;16.556;2023-04-24T13:00:01;6.90;99.90
11005;DHT22;5555;59.622;16.556;2023-04-24T13:02:28;6.50;99.90
11005;DHT22;5555;59.622;16.556;2023-04-24T13:04:56;6.50;99.90
11005;DHT22;5555;59.622;16.556;2023-04-24T13:07:22;6.60;99.90
11005;DHT22;5555;59.622;16.556;2023-04-24T13:09:49;6.60;99.90
11005;DHT22;5555;59.622;16.556;2023-04-24T13:12:15;6.70;99.90
11005;DHT22;5555;59.622;16.556;2023-04-24T13:14:41;6.80;99.90
11005;DHT22;5555;59.622;16.556;2023-04-24T13:17:07;6.90;99.90
11005;DHT22;5555;59.622;16.556;2023-04-24T13:19:40;7.10;99.90
11005;DHT22;5555;59.622;16.556;2023-04-24T13:22:06;6.80;99.90
11005;DHT22;5555;59.622;16.556;2023-04-24T13:24:32;6.50;99.90
11005;DHT22;5555;59.622;16.556;2023-04-24T13:26:59;6.60;99.90
11005;DHT22;5555;59.622;16.556;2023-04-24T13:29:26;6.80;99.90
11005;DHT22;5555;59.622;16.556;2023-04-24T13:31:52;6.70;99.90
11005;DHT22;5555;59.622;16.556;2023-04-24T13:34:20;6.60;99.90
11005;DHT22;5555;59.622;16.556;2023-04-24T13:36:46;6.60;99.90
11005;DHT22;5555;59.622;16.556;2023-04-24T13:39:12;6.40;99.90
11005;DHT22;5555;59.622;16.556;2023-04-24T13:41:38;6.40;99.90
11005;DHT22;5555;59.622;16.556;2023-04-24T13:44:04;6.40;99.90
11005;DHT22;5555;59.622;16.556;2023-04-24T13:46:30;6.10;99.90
11005;DHT22;5555;59.622;16.556;2023-04-24T13:48:57;6.30;99.90
11005;DHT22;5555;59.622;16.556;2023-04-24T13:51:23;6.30;99.90
11005;DHT22;5555;59.622;16.556;2023-04-24T13:53:52;6.30;99.90
11005;DHT22;5555;59.622;16.556;2023-04-24T13:56:18;6.30;99.90
11005;DHT22;5555;59.622;16.556;2023-04-24T13:58:43;6.20;99.90
11005;DHT22;5555;59.622;16.556;2023-04-24T14:01:09;6.20;99.90
11005;DHT22;5555;59.622;16.556;2023-04-24T14:03:37;6.30;99.90
11005;DHT22;5555;59.622;16.556;2023-04-24T14:06:03;6.40;99.90
11005;DHT22;5555;59.622;16.556;2023-04-24T14:08:28;6.40;99.90
11005;DHT22;5555;59.622;16.556;2023-04-24T14:10:54;6.30;99.90
11005;DHT22;5555;59.622;16.556;2023-04-24T14:13:20;6.30;99.90
11005;DHT22;5555;59.622;16.556;2023-04-24T14:15:46;6.10;99.90
11005;DHT22;5555;59.622;16.556;2023-04-24T14:18:12;6.10;99.90
11005;DHT22;5555;59.622;16.556;2023-04-24T14:20:37;6.00;99.90
11005;DHT22;5555;59.622;16.556;2023-04-24T14:23:03;6.10;99.90
11005;DHT22;5555;59.622;16.556;2023-04-24T14:25:30;6.30;99.90
11005;DHT22;5555;59.622;16.556;2023-04-24T14:27:55;6.20;99.90
11005;DHT22;5555;59.622;16.556;2023-04-24T14:30:21;6.10;99.90
11005;DHT22;5555;59.622;16.556;2023-04-24T14:32:47;6.10;99.90
11005;DHT22;5555;59.622;16.556;2023-04-24T14:35:12;6.10;99.90
11005;DHT22;5555;59.622;16.556;2023-04-24T14:37:39;5.90;99.90
11005;DHT22;5555;59.622;16.556;2023-04-24T14:40:07;5.90;99.90
11005;DHT22;5555;59.622;16.556;2023-04-24T14:42:33;5.70;99.90
11005;DHT22;5555;59.622;16.556;2023-04-24T14:44:59;5.80;99.90
11005;DHT22;5555;59.622;16.556;2023-04-24T14:47:25;5.60;99.90
11005;DHT22;5555;59.622;16.556;2023-04-24T14:49:51;5.50;99.90
11005;DHT22;5555;59.622;16.556;2023-04-24T14:52:16;5.60;99.90
11005;DHT22;5555;59.622;16.556;2023-04-24T14:54:42;5.70;99.90
11005;DHT22;5555;59.622;16.556;2023-04-24T14:57:08;5.70;99.90
11005;DHT22;5555;59.622;16.556;2023-04-24T14:59:34;5.70;99.90
11005;DHT22;5555;59.622;16.556;2023-04-24T15:02:00;5.70;99.90
11005;DHT22;5555;59.622;16.556;2023-04-24T15:04:26;5.70;99.90
11005;DHT22;5555;59.622;16.556;2023-04-24T15:06:52;5.80;99.90
11005;DHT22;5555;59.622;16.556;2023-04-24T15:09:24;5.60;99.90
11005;DHT22;5555;59.622;16.556;2023-04-24T15:11:50;5.60;99.90
11005;DHT22;5555;59.622;16.556;2023-04-24T15:14:17;5.60;99.90
11005;DHT22;5555;59.622;16.556;2023-04-24T15:16:43;5.60;99.90
11005;DHT22;5555;59.622;16.556;2023-04-24T15:19:09;5.70;99.90
11005;DHT22;5555;59.622;16.556;2023-04-24T15:21:38;5.70;99.90
11005;DHT22;5555;59.622;16.556;2023-04-24T15:24:06;5.80;99.90
11005;DHT22;5555;59.622;16.556;2023-04-24T15:26:32;5.80;99.90
11005;DHT22;5555;59.622;16.556;2023-04-24T15:28:58;5.60;99.90
11005;DHT22;5555;59.622;16.556;2023-04-24T15:31:23;5.70;99.90
11005;DHT22;5555;59.622;16.556;2023-04-24T15:33:50;5.60;99.90
11005;DHT22;5555;59.622;16.556;2023-04-24T15:36:16;5.70;99.90
11005;DHT22;5555;59.622;16.556;2023-04-24T15:38:43;5.60;99.90
11005;DHT22;5555;59.622;16.556;2023-04-24T15:41:09;5.70;99.90
11005;DHT22;5555;59.622;16.556;2023-04-24T15:43:35;5.60;99.90
11005;DHT22;5555;59.622;16.556;2023-04-24T15:46:01;5.40;99.90
11005;DHT22;5555;59.622;16.556;2023-04-24T15:48:28;5.40;99.90